Terminal Aerodrome Forecast
Issued by NWS

Current Version | Previous Version | Graphics & Text | Print | Product List | Glossary On
Versions: 1 2 3 4 5 6 7 8 9 10 11 12 13 14 15 16 17 18 19
229
FTUS41 KILN 181750
TAFLUK
TAF
KLUK 181750Z 1818/1918 16007KT P6SM BKN250
     FM190600 17008KT P6SM BKN080 WS020/20045KT
     FM190900 19008KT P6SM VCSH OVC025 WS020/22045KT
     FM191100 19009KT 4SM -SHRA OVC015 WS020/22045KT
     FM191500 20012KT P6SM OVC018=

USA.gov is the U.S. government's official web portal to all federal, state and local government web resources and services.